Time;durP1;ratioP1;P1;durP2;ratioP2;P2;SDS_P1;SDS_P2;PMS_P1;PMS_P2;Temp;Humidity;BMP_temperature;BMP_pressure;BME280_temperature;BME280_humidity;BME280_pressure;Samples;Min_cycle;Max_cycle;Signal;HPM_P1;HPM_P2
2022/02/01 00:02:22;;;;;;;14.70;4.10;;;4.00;99.90;;;;;;5032991;28;20824;-72
2022/02/01 00:04:59;;;;;;;16.67;3.97;;;4.00;99.90;;;;;;5045203;28;20524;-72
2022/02/01 00:07:38;;;;;;;15.03;4.10;;;3.90;99.90;;;;;;5051933;28;21011;-70
2022/02/01 00:34:09;;;;;;;17.03;4.07;;;3.60;99.90;;;;;;5051301;28;20449;-70
2022/02/01 00:36:41;;;;;;;13.53;4.50;;;3.60;99.90;;;;;;5031062;28;20464;-70
2022/02/01 00:39:11;;;;;;;14.03;4.60;;;3.60;99.90;;;;;;5040794;28;20464;-71
2022/02/01 00:41:42;;;;;;;13.97;3.53;;;3.60;99.90;;;;;;5030228;28;20454;-70
2022/02/01 00:44:08;;;;;;;21.80;4.63;;;3.80;99.90;;;;;;5031431;28;20813;-70
2022/02/01 00:46:34;;;;;;;10.83;3.73;;;3.80;99.90;;;;;;5030755;28;20463;-71
2022/02/01 00:49:00;;;;;;;13.23;4.23;;;3.80;99.90;;;;;;5032772;28;20621;-70
2022/02/01 00:51:26;;;;;;;12.13;4.17;;;3.70;99.90;;;;;;5012855;28;20472;-70
2022/02/01 00:53:51;;;;;;;14.27;5.13;;;3.70;99.90;;;;;;5054607;23;20900;-69
2022/02/01 00:56:18;;;;;;;16.93;4.27;;;3.90;99.90;;;;;;5050510;28;20295;-69
2022/02/01 00:58:45;;;;;;;16.70;3.37;;;3.90;99.90;;;;;;5054314;28;20222;-69
2022/02/01 01:01:11;;;;;;;17.10;4.30;;;3.90;99.90;;;;;;5041805;28;20489;-69
2022/02/01 01:03:37;;;;;;;15.43;3.33;;;4.00;99.90;;;;;;5060544;28;20929;-69
2022/02/01 01:06:04;;;;;;;13.27;4.47;;;4.00;99.90;;;;;;5071434;28;20493;-69
2022/02/01 01:08:29;;;;;;;11.30;3.50;;;3.90;99.90;;;;;;5072755;28;20961;-69
2022/02/01 01:10:55;;;;;;;15.60;3.83;;;3.70;99.90;;;;;;5072462;28;20464;-69
2022/02/01 01:16:03;;;;;;;14.07;4.37;;;3.60;99.90;;;;;;5073315;28;20539;-69
2022/02/01 01:46:29;;;;;;;13.23;4.37;;;3.50;99.90;;;;;;5052720;28;20975;-70
2022/02/01 01:54:26;;;;;;;14.80;3.93;;;3.50;99.90;;;;;;5072598;28;20810;-69
2022/02/01 01:56:55;;;;;;;10.60;3.67;;;3.50;99.90;;;;;;5072354;28;20433;-70
2022/02/01 01:59:21;;;;;;;12.83;4.60;;;3.50;99.90;;;;;;5056390;28;20447;-69
2022/02/01 02:01:47;;;;;;;22.63;5.70;;;3.60;99.90;;;;;;5072757;28;20416;-69
2022/02/01 02:04:13;;;;;;;12.93;6.10;;;3.70;99.90;;;;;;5072840;28;20469;-69
2022/02/01 02:06:39;;;;;;;13.63;5.27;;;3.60;99.90;;;;;;5073519;28;20177;-69
2022/02/01 02:09:08;;;;;;;12.27;5.90;;;3.70;99.90;;;;;;5073400;28;20401;-68
2022/02/01 02:14:18;;;;;;;12.00;4.53;;;3.80;99.90;;;;;;5096901;28;20432;-69
2022/02/01 02:16:56;;;;;;;15.00;5.60;;;3.70;99.90;;;;;;5097514;28;20399;-70
2022/02/01 02:19:25;;;;;;;10.40;3.93;;;3.70;99.90;;;;;;5081151;28;20422;-69
2022/02/01 02:21:55;;;;;;;10.20;4.17;;;3.70;99.90;;;;;;5096926;28;20432;-69
2022/02/01 02:24:23;;;;;;;12.60;3.67;;;3.80;99.90;;;;;;5079432;28;20426;-69
2022/02/01 02:26:50;;;;;;;11.10;4.40;;;3.80;99.90;;;;;;5078826;28;20415;-70
2022/02/01 02:29:15;;;;;;;10.50;3.27;;;3.70;99.90;;;;;;5078776;28;20434;-69
2022/02/01 02:31:41;;;;;;;14.13;4.37;;;3.70;99.90;;;;;;5097385;28;20400;-70
2022/02/01 02:34:11;;;;;;;12.73;3.00;;;3.80;99.90;;;;;;5097488;28;20815;-69
2022/02/01 02:36:43;;;;;;;9.07;2.90;;;3.80;99.90;;;;;;5095269;28;20435;-70
2022/02/01 02:39:20;;;;;;;12.53;4.20;;;3.80;99.90;;;;;;5068142;28;20419;-69
2022/02/01 02:41:52;;;;;;;11.87;3.57;;;3.80;99.90;;;;;;5076366;28;20449;-69
2022/02/01 02:47:04;;;;;;;7.90;2.80;;;3.90;99.90;;;;;;5068636;28;20422;-69
2022/02/01 02:49:30;;;;;;;12.50;3.57;;;3.90;99.90;;;;;;5056910;28;20398;-69
2022/02/01 02:51:56;;;;;;;15.93;5.50;;;4.00;99.90;;;;;;5056840;28;20982;-69
2022/02/01 02:54:24;;;;;;;11.97;4.27;;;4.10;99.90;;;;;;5074354;28;20240;-69
2022/02/01 02:57:00;;;;;;;11.63;4.23;;;4.20;99.90;;;;;;5097124;28;20168;-69
2022/02/01 02:59:27;;;;;;;11.50;3.90;;;4.30;99.90;;;;;;5096966;28;20394;-69
2022/02/01 03:01:53;;;;;;;10.70;3.30;;;4.40;99.90;;;;;;5097128;28;20432;-69
2022/02/01 03:04:21;;;;;;;12.30;3.27;;;4.30;99.90;;;;;;5096858;28;20779;-69
2022/02/01 03:06:47;;;;;;;7.00;3.90;;;4.30;99.90;;;;;;5096538;28;20412;-70
2022/02/01 03:09:14;;;;;;;10.10;4.63;;;4.30;99.90;;;;;;5096489;28;20413;-70
2022/02/01 03:11:40;;;;;;;11.70;4.80;;;4.40;99.90;;;;;;5094573;28;20418;-69
2022/02/01 03:14:21;;;;;;;11.60;4.10;;;4.40;99.90;;;;;;5095986;28;20429;-69
2022/02/01 03:22:12;;;;;;;10.93;3.97;;;4.20;99.90;;;;;;5095574;28;20421;-69
2022/02/01 03:24:37;;;;;;;9.57;2.70;;;4.30;99.90;;;;;;5095016;28;20456;-69
2022/02/01 03:27:03;;;;;;;11.50;3.13;;;4.30;99.90;;;;;;5095816;28;20178;-69
2022/02/01 03:29:29;;;;;;;12.90;3.10;;;4.30;99.90;;;;;;5094248;28;20171;-69
2022/02/01 03:31:54;;;;;;;9.27;3.37;;;4.20;99.90;;;;;;5095559;28;20418;-70
2022/02/01 03:34:20;;;;;;;7.70;2.97;;;4.20;99.90;;;;;;5095847;28;20188;-69
2022/02/01 03:36:45;;;;;;;8.70;2.93;;;4.20;99.90;;;;;;5095392;28;20171;-68
2022/02/01 03:39:11;;;;;;;10.20;3.10;;;4.30;99.90;;;;;;5096595;28;20179;-70
2022/02/01 03:41:37;;;;;;;8.63;2.80;;;4.30;99.90;;;;;;5074907;28;20177;-70
2022/02/01 03:44:05;;;;;;;8.43;2.53;;;4.30;99.90;;;;;;5075197;28;20195;-70
2022/02/01 03:46:31;;;;;;;5.10;1.90;;;4.30;99.90;;;;;;5041175;28;20320;-69
2022/02/01 03:48:57;;;;;;;11.20;2.67;;;4.40;99.90;;;;;;5095888;28;20404;-69
2022/02/01 03:51:22;;;;;;;11.83;2.83;;;4.40;99.90;;;;;;5095806;28;20416;-69
2022/02/01 03:53:48;;;;;;;13.37;2.90;;;4.40;99.90;;;;;;5095323;28;20291;-69
2022/02/01 03:56:13;;;;;;;9.43;2.57;;;4.40;99.90;;;;;;5095364;28;20170;-70
2022/02/01 03:58:39;;;;;;;9.80;2.50;;;4.50;99.90;;;;;;5095595;28;20176;-69
2022/02/01 04:01:05;;;;;;;9.50;2.10;;;4.50;99.90;;;;;;5077676;28;20180;-69
2022/02/01 04:03:31;;;;;;;5.03;2.80;;;4.50;99.90;;;;;;5076327;28;20554;-69
2022/02/01 04:05:57;;;;;;;8.93;2.73;;;4.50;99.90;;;;;;5056387;28;20465;-70
2022/02/01 04:08:24;;;;;;;13.07;3.33;;;4.50;99.90;;;;;;5074846;28;20411;-70
2022/02/01 04:10:50;;;;;;;9.57;3.30;;;4.60;99.90;;;;;;5074877;28;20170;-69
2022/02/01 04:13:17;;;;;;;9.00;3.57;;;4.50;99.90;;;;;;5057571;28;20432;-69
2022/02/01 04:15:43;;;;;;;10.30;3.33;;;4.50;99.90;;;;;;5074969;28;20433;-70
2022/02/01 04:18:09;;;;;;;9.90;2.93;;;4.50;99.90;;;;;;5075196;28;20407;-69
2022/02/01 04:20:35;;;;;;;14.00;3.20;;;4.50;99.90;;;;;;5040654;28;20187;-69
2022/02/01 04:23:01;;;;;;;9.67;2.60;;;4.50;99.90;;;;;;5095484;28;20426;-69
2022/02/01 04:25:27;;;;;;;11.73;3.63;;;4.50;99.90;;;;;;5091187;28;20448;-69
2022/02/01 04:27:52;;;;;;;10.03;3.07;;;4.50;99.90;;;;;;5074345;28;20504;-70
2022/02/01 04:30:19;;;;;;;11.43;3.33;;;4.50;99.90;;;;;;5072200;28;20267;-69
2022/02/01 04:32:54;;;;;;;10.53;3.40;;;4.50;99.90;;;;;;5054530;28;20199;-70
2022/02/01 04:35:25;;;;;;;12.90;2.80;;;4.30;99.90;;;;;;5055004;28;20493;-68
2022/02/01 04:37:54;;;;;;;5.97;2.60;;;4.10;99.90;;;;;;5054824;28;20397;-70
2022/02/01 04:40:21;;;;;;;13.20;2.80;;;4.10;99.90;;;;;;5057268;28;20426;-68
2022/02/01 04:42:47;;;;;;;6.10;2.60;;;4.10;99.90;;;;;;5056202;28;20447;-70
2022/02/01 04:45:19;;;;;;;10.13;3.00;;;4.20;99.90;;;;;;5073984;28;20815;-69
2022/02/01 04:47:46;;;;;;;4.70;2.10;;;4.20;99.90;;;;;;5074862;28;20192;-70
2022/02/01 04:50:18;;;;;;;10.63;3.13;;;4.20;99.90;;;;;;5070916;28;20919;-69
2022/02/01 04:52:46;;;;;;;10.27;2.90;;;4.10;99.90;;;;;;5071243;28;20517;-69
2022/02/01 04:55:13;;;;;;;5.70;3.20;;;4.10;99.90;;;;;;5087100;28;20431;-69
2022/02/01 04:57:51;;;;;;;11.93;3.33;;;4.20;99.90;;;;;;5066857;28;20472;-69
2022/02/01 05:00:17;;;;;;;15.00;3.80;;;4.10;99.90;;;;;;5067283;28;20487;-70
2022/02/01 05:02:42;;;;;;;10.30;3.37;;;4.20;99.90;;;;;;5071673;28;20439;-69
2022/02/01 05:05:08;;;;;;;11.47;3.63;;;4.20;99.90;;;;;;5064611;28;20240;-69
2022/02/01 05:07:33;;;;;;;12.40;3.10;;;4.30;99.90;;;;;;5066087;28;20206;-69
2022/02/01 05:09:59;;;;;;;10.80;3.47;;;4.30;99.90;;;;;;5066466;28;20230;-68
2022/02/01 05:12:26;;;;;;;8.73;3.10;;;4.30;99.90;;;;;;5053830;28;20212;-69
2022/02/01 05:14:52;;;;;;;10.10;2.83;;;4.40;99.90;;;;;;5059630;28;20195;-69
2022/02/01 05:17:19;;;;;;;12.13;3.57;;;4.40;99.90;;;;;;5076617;28;20536;-69
2022/02/01 05:19:54;;;;;;;8.93;3.13;;;4.40;99.90;;;;;;5066295;28;20188;-70
2022/02/01 05:22:20;;;;;;;6.00;3.03;;;4.30;99.90;;;;;;5054334;28;20457;-69
2022/02/01 05:24:48;;;;;;;6.53;2.70;;;4.40;99.90;;;;;;5054484;28;20473;-69
2022/02/01 05:27:14;;;;;;;8.87;3.70;;;4.40;99.90;;;;;;5053844;28;21086;-69
2022/02/01 05:29:41;;;;;;;17.03;4.33;;;4.50;99.90;;;;;;5066315;28;20502;-69
2022/02/01 05:32:22;;;;;;;10.80;3.83;;;4.50;99.90;;;;;;5063490;28;20633;-69
2022/02/01 05:34:49;;;;;;;6.20;3.30;;;4.50;99.90;;;;;;5052665;28;20428;-69
2022/02/01 05:37:14;;;;;;;8.90;4.00;;;4.50;99.90;;;;;;5062105;28;20431;-69
2022/02/01 05:39:40;;;;;;;8.80;2.93;;;4.50;99.90;;;;;;5072350;28;20942;-69
2022/02/01 05:42:06;;;;;;;8.13;3.47;;;4.50;99.90;;;;;;5072422;28;20180;-68
2022/02/01 05:44:32;;;;;;;9.97;3.47;;;4.50;99.90;;;;;;5054487;28;20657;-69
2022/02/01 05:46:57;;;;;;;8.80;3.80;;;4.50;99.90;;;;;;5073477;28;20429;-69
2022/02/01 05:49:23;;;;;;;9.83;3.30;;;4.50;99.90;;;;;;5079144;28;20267;-69
2022/02/01 05:51:50;;;;;;;13.60;3.87;;;4.50;99.90;;;;;;5076576;28;20660;-68
2022/02/01 05:54:16;;;;;;;10.20;3.97;;;4.50;99.90;;;;;;5041299;28;1018877;-68
2022/02/01 05:56:42;;;;;;;9.30;4.30;;;4.50;99.90;;;;;;5077852;28;20176;-69
2022/02/01 05:59:07;;;;;;;11.87;3.93;;;4.50;99.90;;;;;;5079600;28;20461;-69
2022/02/01 06:01:33;;;;;;;8.40;3.57;;;4.50;99.90;;;;;;5077604;28;20305;-69
2022/02/01 06:03:58;;;;;;;9.43;3.67;;;4.40;99.90;;;;;;5076860;28;20196;-68
2022/02/01 06:06:24;;;;;;;9.47;3.70;;;4.30;99.90;;;;;;5058360;28;20239;-70
2022/02/01 06:08:49;;;;;;;21.40;4.20;;;4.30;99.90;;;;;;5078461;28;20177;-68
2022/02/01 06:11:15;;;;;;;9.57;3.43;;;4.30;99.90;;;;;;5076896;28;20173;-67
2022/02/01 06:13:40;;;;;;;16.70;3.80;;;4.30;99.90;;;;;;5077194;28;20192;-69
2022/02/01 06:16:07;;;;;;;12.30;4.03;;;4.30;99.90;;;;;;5076378;28;20200;-69
2022/02/01 06:18:32;;;;;;;12.47;3.60;;;4.30;99.90;;;;;;5076784;28;20175;-69
2022/02/01 06:21:00;;;;;;;8.50;3.70;;;4.40;99.90;;;;;;5077645;28;20521;-69
2022/02/01 06:23:26;;;;;;;5.97;3.30;;;4.30;99.90;;;;;;5076675;28;20427;-69
2022/02/01 06:25:53;;;;;;;7.17;3.63;;;4.30;99.90;;;;;;5075978;28;20815;-69
2022/02/01 06:28:21;;;;;;;12.83;3.90;;;4.40;99.90;;;;;;5076739;28;20406;-69
2022/02/01 06:30:47;;;;;;;6.67;3.20;;;4.40;99.90;;;;;;5077214;28;20447;-69
2022/02/01 06:33:13;;;;;;;10.70;4.23;;;4.50;99.90;;;;;;5076773;28;20426;-68
2022/02/01 06:35:39;;;;;;;12.90;4.17;;;4.40;99.90;;;;;;5076160;28;20451;-70
2022/02/01 06:38:05;;;;;;;7.13;4.30;;;4.40;99.90;;;;;;5076845;28;20417;-69
2022/02/01 06:40:31;;;;;;;7.43;3.10;;;4.50;99.90;;;;;;5077978;28;20209;-70
2022/02/01 06:42:56;;;;;;;18.03;5.50;;;4.50;99.90;;;;;;5077260;28;20413;-69
2022/02/01 06:45:26;;;;;;;7.70;4.23;;;4.50;99.90;;;;;;5076576;28;20205;-68
2022/02/01 06:47:52;;;;;;;8.20;3.63;;;4.60;99.90;;;;;;5076638;28;20214;-69
2022/02/01 06:50:21;;;;;;;8.80;3.60;;;4.50;99.90;;;;;;5076778;28;20440;-69
2022/02/01 06:52:57;;;;;;;6.03;3.50;;;4.50;99.90;;;;;;5077419;28;20424;-71
2022/02/01 06:58:10;;;;;;;10.80;3.90;;;4.60;99.90;;;;;;5034750;28;20473;-70
2022/02/01 07:00:36;;;;;;;10.90;4.43;;;4.60;99.90;;;;;;5033850;28;20393;-70
2022/02/01 07:03:01;;;;;;;10.10;3.70;;;4.60;99.90;;;;;;5048230;28;21067;-70
2022/02/01 07:05:27;;;;;;;9.33;3.80;;;4.50;99.90;;;;;;5054199;28;20731;-71
2022/02/01 07:07:52;;;;;;;10.63;3.53;;;4.50;99.90;;;;;;5054339;28;20533;-69
2022/02/01 07:10:18;;;;;;;11.03;3.70;;;4.40;99.90;;;;;;5055019;28;20163;-70
2022/02/01 07:12:44;;;;;;;7.33;3.50;;;4.40;99.90;;;;;;5058962;28;20583;-70
2022/02/01 07:15:10;;;;;;;10.60;4.20;;;4.40;99.90;;;;;;5075181;28;20203;-71
2022/02/01 07:17:49;;;;;;;8.10;3.43;;;4.50;99.90;;;;;;5074735;28;20514;-69
2022/02/01 07:20:16;;;;;;;13.67;3.83;;;4.40;99.90;;;;;;5075514;28;20585;-70
2022/02/01 07:22:43;;;;;;;6.77;3.60;;;4.50;99.90;;;;;;5075760;28;20406;-69
2022/02/01 07:25:23;;;;;;;7.97;3.83;;;4.50;99.90;;;;;;5073362;28;20458;-71
2022/02/01 07:27:50;;;;;;;8.63;4.00;;;4.50;99.90;;;;;;5056984;28;20851;-71
2022/02/01 07:30:19;;;;;;;10.97;4.70;;;4.60;99.90;;;;;;5076036;28;20398;-69
2022/02/01 07:32:45;;;;;;;16.23;5.00;;;4.60;99.90;;;;;;5075316;28;20403;-70
2022/02/01 07:35:11;;;;;;;14.20;5.27;;;4.60;99.90;;;;;;5055432;28;20963;-71
2022/02/01 07:37:37;;;;;;;10.63;4.47;;;4.60;99.90;;;;;;5057021;28;20479;-71
2022/02/01 07:40:06;;;;;;;8.70;4.43;;;4.50;99.90;;;;;;5075567;28;20896;-71
2022/02/01 07:42:32;;;;;;;14.07;4.77;;;4.60;99.90;;;;;;5058116;28;20195;-70
2022/02/01 07:45:01;;;;;;;8.07;4.00;;;4.70;99.90;;;;;;5073788;28;20972;-71
2022/02/01 07:47:26;;;;;;;10.60;4.47;;;4.70;99.90;;;;;;5075055;28;20765;-70
2022/02/01 07:49:52;;;;;;;11.60;4.67;;;4.70;99.90;;;;;;5076240;28;20492;-70
2022/02/01 07:52:18;;;;;;;10.70;4.87;;;4.60;99.90;;;;;;5058890;28;20206;-72
2022/02/01 07:54:45;;;;;;;8.13;3.50;;;4.60;99.90;;;;;;5076475;28;20303;-71
2022/02/01 07:57:11;;;;;;;9.30;4.47;;;4.60;99.90;;;;;;5073641;28;20448;-69
2022/02/01 07:59:36;;;;;;;15.87;4.90;;;4.60;99.90;;;;;;5075726;28;20413;-70
2022/02/01 08:02:04;;;;;;;13.43;5.87;;;4.70;99.90;;;;;;5078669;28;21006;-72
2022/02/01 08:04:34;;;;;;;8.43;4.63;;;4.70;99.90;;;;;;5080001;28;20203;-72
2022/02/01 08:07:01;;;;;;;12.00;5.30;;;4.80;99.90;;;;;;5078502;28;20414;-70
2022/02/01 08:09:36;;;;;;;11.93;6.90;;;4.80;99.90;;;;;;5083582;28;20411;-70
2022/02/01 08:12:10;;;;;;;10.90;5.50;;;4.80;99.90;;;;;;5095497;28;20391;-69
2022/02/01 08:17:28;;;;;;;16.87;6.60;;;4.80;99.90;;;;;;5087297;28;20416;-69
2022/02/01 08:22:36;;;;;;;11.90;6.37;;;4.80;99.90;;;;;;5054724;28;20381;-70
2022/02/01 08:25:02;;;;;;;14.87;6.80;;;4.80;99.90;;;;;;5053628;28;20476;-70
2022/02/01 08:27:29;;;;;;;10.50;6.47;;;4.80;99.90;;;;;;5037282;28;20831;-71
2022/02/01 08:29:55;;;;;;;12.87;6.13;;;4.80;99.90;;;;;;5052147;28;20449;-70
2022/02/01 08:32:20;;;;;;;12.30;7.20;;;4.80;99.90;;;;;;5053565;28;20462;-70
2022/02/01 08:34:46;;;;;;;10.97;6.57;;;4.80;99.90;;;;;;5058995;28;20208;-70
2022/02/01 08:37:11;;;;;;;10.53;6.77;;;4.90;99.90;;;;;;5059695;28;20257;-69
2022/02/01 08:39:37;;;;;;;15.40;6.60;;;4.80;99.90;;;;;;5052467;28;20185;-69
2022/02/01 08:42:03;;;;;;;11.97;7.27;;;4.90;99.90;;;;;;5035071;28;20265;-70
2022/02/01 08:44:29;;;;;;;9.87;6.03;;;4.90;99.90;;;;;;5053669;28;20203;-70
2022/02/01 08:46:58;;;;;;;13.03;6.87;;;4.90;99.90;;;;;;5052424;28;20453;-71
2022/02/01 08:49:24;;;;;;;9.50;7.70;;;4.70;99.90;;;;;;5059834;28;20499;-70
2022/02/01 08:51:59;;;;;;;12.53;6.93;;;4.80;99.90;;;;;;5073009;28;20412;-70
2022/02/01 08:54:27;;;;;;;9.53;6.50;;;4.80;99.90;;;;;;5054291;28;20550;-70
2022/02/01 08:59:37;;;;;;;11.97;7.13;;;4.90;99.90;;;;;;5072262;28;20431;-71
2022/02/01 09:02:04;;;;;;;8.60;6.43;;;4.80;99.90;;;;;;5074032;28;20410;-69
2022/02/01 09:04:31;;;;;;;6.30;5.50;;;4.80;99.90;;;;;;5064299;28;20254;-70
2022/02/01 09:06:57;;;;;;;11.20;6.17;;;4.80;99.90;;;;;;5053519;28;20472;-70
2022/02/01 09:09:23;;;;;;;8.40;5.77;;;4.80;99.90;;;;;;5052915;28;20571;-69
2022/02/01 09:11:50;;;;;;;6.60;5.83;;;4.70;99.90;;;;;;5054441;28;20515;-68
2022/02/01 09:14:16;;;;;;;7.80;5.93;;;4.80;99.90;;;;;;5052604;28;20796;-70
2022/02/01 09:16:42;;;;;;;5.33;4.93;;;4.80;99.90;;;;;;5053105;28;20426;-69
2022/02/01 09:19:08;;;;;;;5.50;4.80;;;4.70;99.90;;;;;;5055014;28;20477;-70
2022/02/01 09:21:33;;;;;;;6.10;4.80;;;4.80;99.90;;;;;;5055134;28;20184;-70
2022/02/01 09:23:59;;;;;;;7.30;4.87;;;4.80;99.90;;;;;;5060669;28;20473;-70
2022/02/01 09:26:24;;;;;;;6.20;4.83;;;4.80;99.90;;;;;;5059827;28;20208;-71
2022/02/01 09:28:50;;;;;;;4.93;4.30;;;4.80;99.90;;;;;;5059782;28;20229;-71
2022/02/01 09:31:17;;;;;;;6.50;5.27;;;4.90;99.90;;;;;;5043563;28;20270;-69
2022/02/01 09:33:43;;;;;;;7.97;5.60;;;4.80;99.90;;;;;;5058951;28;20190;-70
2022/02/01 09:36:09;;;;;;;5.27;4.77;;;4.80;99.90;;;;;;5054132;28;20426;-71
2022/02/01 09:38:35;;;;;;;9.50;5.67;;;4.80;99.90;;;;;;5054237;28;20423;-70
2022/02/01 09:41:02;;;;;;;6.73;6.00;;;4.90;99.90;;;;;;5064296;28;20184;-70
2022/02/01 09:43:28;;;;;;;7.57;5.80;;;5.00;99.90;;;;;;5074426;28;20411;-70
2022/02/01 09:45:58;;;;;;;6.60;5.63;;;5.10;99.90;;;;;;5074805;28;20800;-70
2022/02/01 09:48:24;;;;;;;7.43;6.67;;;5.10;99.90;;;;;;5076270;28;20421;-69
2022/02/01 09:50:51;;;;;;;6.53;5.93;;;5.10;99.90;;;;;;5056492;28;20537;-68
2022/02/01 09:53:18;;;;;;;5.67;5.17;;;5.10;99.90;;;;;;5060499;28;20423;-69
2022/02/01 09:55:44;;;;;;;6.93;5.40;;;5.10;99.90;;;;;;5043838;28;20583;-70
2022/02/01 09:58:12;;;;;;;8.53;6.47;;;5.10;99.90;;;;;;5074906;28;20397;-69
2022/02/01 10:00:44;;;;;;;6.23;5.63;;;5.10;99.90;;;;;;5076542;28;20166;-68
2022/02/01 10:03:21;;;;;;;7.40;5.13;;;5.10;99.90;;;;;;5094611;28;20399;-69
2022/02/01 10:06:06;;;;;;;6.40;5.80;;;5.00;99.90;;;;;;5095848;28;20537;-68
2022/02/01 10:08:32;;;;;;;10.67;7.30;;;5.00;99.90;;;;;;5076317;28;20449;-70
2022/02/01 10:10:58;;;;;;;7.03;6.33;;;5.10;99.90;;;;;;5071504;28;20746;-71
2022/02/01 10:13:23;;;;;;;7.63;6.60;;;5.10;99.90;;;;;;5065506;28;20411;-71
2022/02/01 10:16:01;;;;;;;9.83;6.50;;;5.30;99.90;;;;;;5050666;28;20185;-70
2022/02/01 10:18:33;;;;;;;10.53;7.70;;;5.20;99.90;;;;;;5050879;28;20626;-70
2022/02/01 10:21:13;;;;;;;9.10;7.27;;;5.20;99.90;;;;;;5032954;28;20486;-69
2022/02/01 10:23:41;;;;;;;8.50;7.33;;;5.20;99.90;;;;;;5051788;28;20882;-69
2022/02/01 10:26:21;;;;;;;8.60;7.70;;;5.20;99.90;;;;;;5050001;28;20964;-69
2022/02/01 10:29:04;;;;;;;10.00;7.80;;;5.10;99.90;;;;;;5050709;28;20415;-69
2022/02/01 10:31:45;;;;;;;9.60;8.00;;;5.10;99.90;;;;;;5051743;28;20501;-70
2022/02/01 10:37:03;;;;;;;8.80;8.00;;;5.20;99.90;;;;;;5038604;28;20582;-70
2022/02/01 10:39:31;;;;;;;8.80;7.50;;;5.20;99.90;;;;;;5054603;28;20420;-69
2022/02/01 10:42:00;;;;;;;8.70;7.80;;;5.30;99.90;;;;;;5055103;28;20419;-71
2022/02/01 10:44:43;;;;;;;7.93;7.27;;;5.30;99.90;;;;;;5054473;28;20436;-70
2022/02/01 10:47:17;;;;;;;8.43;7.57;;;5.30;99.90;;;;;;5054143;28;20421;-70
2022/02/01 10:49:43;;;;;;;9.83;7.90;;;5.30;99.90;;;;;;5055653;28;20503;-70
2022/02/01 10:52:14;;;;;;;11.70;8.60;;;5.30;99.90;;;;;;5054808;28;20553;-70
2022/02/01 10:54:41;;;;;;;12.30;8.57;;;5.30;99.90;;;;;;5054744;28;20892;-71
2022/02/01 10:57:10;;;;;;;9.90;8.93;;;5.30;99.90;;;;;;5037011;28;20428;-71
2022/02/01 10:59:36;;;;;;;10.03;8.37;;;5.30;99.90;;;;;;5062331;28;20416;-70
2022/02/01 11:02:03;;;;;;;10.50;9.10;;;5.20;99.90;;;;;;5076074;28;20408;-69
2022/02/01 11:04:32;;;;;;;10.53;8.13;;;5.20;99.90;;;;;;5078695;28;20493;-68
2022/02/01 11:06:58;;;;;;;10.47;8.37;;;5.30;99.90;;;;;;5078997;28;20405;-68
2022/02/01 11:09:31;;;;;;;10.10;7.90;;;5.30;99.90;;;;;;5078821;28;20488;-68
2022/02/01 11:12:10;;;;;;;9.07;7.37;;;5.30;99.90;;;;;;5083301;28;20431;-70
2022/02/01 11:14:40;;;;;;;7.93;7.20;;;5.30;99.90;;;;;;5074310;28;20799;-70
2022/02/01 11:17:08;;;;;;;7.43;6.73;;;5.40;99.90;;;;;;5073960;28;20904;-73
2022/02/01 11:19:50;;;;;;;8.10;7.40;;;5.30;99.90;;;;;;5074141;28;20408;-70
2022/02/01 11:22:24;;;;;;;8.50;7.70;;;5.40;99.90;;;;;;5071895;28;20471;-71
2022/02/01 11:24:53;;;;;;;8.77;7.87;;;5.40;99.90;;;;;;5055556;28;20499;-71
2022/02/01 11:27:31;;;;;;;7.83;7.03;;;5.50;99.90;;;;;;5074066;28;20884;-70
2022/02/01 11:30:12;;;;;;;8.73;7.30;;;5.60;99.90;;;;;;5073664;28;20503;-70
2022/02/01 11:32:49;;;;;;;7.80;6.70;;;5.70;99.90;;;;;;5071662;28;20416;-69
2022/02/01 11:35:21;;;;;;;7.30;6.10;;;5.70;99.90;;;;;;5073343;28;20427;-70
2022/02/01 11:38:03;;;;;;;7.00;6.30;;;5.70;99.90;;;;;;5053697;28;20412;-70
2022/02/01 11:40:34;;;;;;;6.87;6.17;;;5.80;99.90;;;;;;5035002;28;20405;-70
2022/02/01 11:43:04;;;;;;;6.97;6.27;;;5.80;99.90;;;;;;5053774;28;20427;-70
2022/02/01 11:45:55;;;;;;;5.97;5.37;;;5.80;99.90;;;;;;5051631;28;20484;-68
2022/02/01 11:48:27;;;;;;;11.13;6.03;;;5.70;99.90;;;;;;5052910;28;20500;-69
2022/02/01 11:51:23;;;;;;;7.30;5.57;;;5.70;99.90;;;;;;5052792;28;20405;-69
2022/02/01 11:53:57;;;;;;;6.60;5.93;;;5.70;99.90;;;;;;4953354;28;20456;-69
2022/02/01 11:56:31;;;;;;;5.60;5.10;;;5.70;99.90;;;;;;4952584;29;20439;-72
2022/02/01 11:59:00;;;;;;;5.67;5.13;;;5.70;99.90;;;;;;4952530;29;20528;-72
2022/02/01 12:01:31;;;;;;;5.87;4.77;;;5.80;99.90;;;;;;4953508;28;20433;-70
2022/02/01 12:04:06;;;;;;;5.27;4.77;;;5.70;99.90;;;;;;4952202;29;20456;-70
2022/02/01 12:07:05;;;;;;;5.73;4.40;;;5.70;99.90;;;;;;4952100;29;20451;-71
2022/02/01 12:09:31;;;;;;;4.00;3.70;;;5.80;99.90;;;;;;4953305;29;20393;-70
2022/02/01 12:12:00;;;;;;;4.83;4.43;;;5.90;99.90;;;;;;4957379;28;20911;-71
2022/02/01 12:14:27;;;;;;;5.63;4.50;;;5.90;99.90;;;;;;4960490;29;20276;-71
2022/02/01 12:16:54;;;;;;;4.33;3.93;;;5.90;99.90;;;;;;4952653;29;20496;-69
2022/02/01 12:19:26;;;;;;;5.67;4.23;;;5.90;99.90;;;;;;4952809;29;20420;-69
2022/02/01 12:22:25;;;;;;;4.87;4.37;;;5.90;99.90;;;;;;4952012;28;20413;-69
2022/02/01 12:24:52;;;;;;;6.30;4.60;;;5.90;99.90;;;;;;4894369;29;20467;-70
2022/02/01 12:27:18;;;;;;;5.67;4.50;;;6.00;99.90;;;;;;4894572;29;20442;-69
2022/02/01 12:29:43;;;;;;;4.90;4.40;;;6.00;99.90;;;;;;4911738;29;20950;-69
2022/02/01 12:32:10;;;;;;;6.10;5.50;;;6.00;99.90;;;;;;4951385;29;20205;-69
2022/02/01 12:34:37;;;;;;;5.63;4.50;;;6.00;99.90;;;;;;4953688;28;20204;-70
2022/02/01 12:37:03;;;;;;;10.07;4.67;;;6.10;99.90;;;;;;4951874;29;20423;-70
2022/02/01 12:39:32;;;;;;;4.90;4.37;;;6.10;99.90;;;;;;4936571;29;20848;-70
2022/02/01 12:47:01;;;;;;;4.60;3.80;;;6.10;99.90;;;;;;4951101;29;20496;-69
2022/02/01 12:49:47;;;;;;;4.40;4.00;;;6.10;99.90;;;;;;4952520;28;20425;-71
2022/02/01 12:52:34;;;;;;;7.73;3.87;;;6.10;99.90;;;;;;4951445;28;20436;-72
2022/02/01 12:55:13;;;;;;;5.03;3.63;;;6.10;99.90;;;;;;4951320;29;21023;-71
2022/02/01 12:57:40;;;;;;;5.07;4.57;;;6.20;99.90;;;;;;4950797;28;20814;-71
2022/02/01 13:00:17;;;;;;;4.40;4.00;;;6.20;99.90;;;;;;4952512;28;20441;-71
2022/02/01 13:02:44;;;;;;;6.60;3.90;;;6.20;99.90;;;;;;5050490;28;20443;-71
2022/02/01 13:05:13;;;;;;;4.63;4.23;;;6.20;99.90;;;;;;5051353;28;20821;-71
2022/02/01 13:13:25;;;;;;;5.70;4.33;;;6.20;99.90;;;;;;5051913;28;20408;-71
2022/02/01 13:15:55;;;;;;;4.67;4.27;;;6.20;99.90;;;;;;5050930;28;20424;-71
2022/02/01 13:21:16;;;;;;;3.83;3.43;;;6.30;99.90;;;;;;5076854;22;20544;-70
2022/02/01 13:23:49;;;;;;;4.90;4.33;;;6.30;99.90;;;;;;5074252;28;20582;-70
2022/02/01 13:26:19;;;;;;;3.70;3.33;;;6.30;99.90;;;;;;5075344;28;20458;-70
2022/02/01 13:29:10;;;;;;;4.40;3.73;;;6.30;99.90;;;;;;5074282;28;20407;-70
2022/02/01 13:31:38;;;;;;;3.17;2.97;;;6.40;99.90;;;;;;5075898;28;20439;-70
2022/02/01 13:34:06;;;;;;;3.40;3.10;;;6.40;99.90;;;;;;5075523;28;20399;-71
2022/02/01 13:36:32;;;;;;;3.40;3.10;;;6.40;99.90;;;;;;5075696;28;20418;-69
2022/02/01 13:39:03;;;;;;;3.40;3.10;;;6.40;99.90;;;;;;5071537;28;20412;-70
2022/02/01 13:41:31;;;;;;;4.40;3.03;;;6.40;99.90;;;;;;5071417;28;20455;-70
2022/02/01 13:44:01;;;;;;;4.03;3.63;;;6.40;99.90;;;;;;5089987;28;20454;-69
2022/02/01 13:46:29;;;;;;;3.50;2.90;;;6.50;99.90;;;;;;5090867;28;20434;-69
2022/02/01 13:49:01;;;;;;;4.93;3.47;;;6.60;99.90;;;;;;5091231;28;20415;-69
2022/02/01 13:51:28;;;;;;;2.50;2.40;;;6.60;99.90;;;;;;5091329;28;21018;-70
2022/02/01 13:54:02;;;;;;;3.63;2.63;;;6.60;99.90;;;;;;5089728;28;20818;-69
2022/02/01 13:56:30;;;;;;;2.80;2.60;;;6.60;99.90;;;;;;5073253;28;20426;-70
2022/02/01 13:59:11;;;;;;;3.00;2.70;;;6.50;99.90;;;;;;5071251;28;20408;-69
2022/02/01 14:01:40;;;;;;;3.13;2.83;;;6.60;99.90;;;;;;5071011;28;20431;-69
2022/02/01 14:04:12;;;;;;;4.90;3.50;;;6.60;99.90;;;;;;5071044;28;20924;-69
2022/02/01 14:06:59;;;;;;;4.90;3.13;;;6.60;99.90;;;;;;5071765;28;20473;-69
2022/02/01 14:22:34;;;;;;;3.70;2.93;;;6.60;99.90;;;;;;5066772;28;20489;-70
2022/02/01 14:23:31;;;;;;;3.70;3.13;;;6.70;99.90;;;;;;5067247;28;20419;-70
2022/02/01 14:25:46;;;;;;;5.00;3.73;;;6.80;99.90;;;;;;5068222;28;20573;-70
2022/02/01 14:33:29;;;;;;;5.07;4.53;;;6.70;99.90;;;;;;5068184;28;20435;-70
2022/02/01 14:35:55;;;;;;;4.93;4.43;;;6.70;99.90;;;;;;5070514;28;21268;-70
2022/02/01 14:43:44;;;;;;;7.30;6.10;;;6.80;99.90;;;;;;5066084;28;20445;-70
2022/02/01 14:46:10;;;;;;;7.73;5.90;;;6.80;99.90;;;;;;5052215;28;20512;-70
2022/02/01 14:48:36;;;;;;;8.43;6.30;;;6.90;99.90;;;;;;5071269;28;20431;-69
2022/02/01 14:51:11;;;;;;;8.17;7.20;;;6.80;99.90;;;;;;5069982;28;20457;-70
2022/02/01 14:53:37;;;;;;;9.60;7.60;;;6.90;99.90;;;;;;5070667;28;20185;-70
2022/02/01 14:56:18;;;;;;;9.27;7.67;;;6.90;99.90;;;;;;5071271;28;20923;-70
2022/02/01 15:12:05;;;;;;;11.67;9.03;;;7.00;99.90;;;;;;5071418;28;20280;-69
2022/02/01 15:14:30;;;;;;;12.27;9.10;;;7.00;99.90;;;;;;5048055;28;20471;-68
2022/02/01 15:16:56;;;;;;;11.43;10.17;;;7.10;99.90;;;;;;5067878;28;20448;-69